• Join FlightAware (Why Join?)
  • Login
  • US Flag 
02:45AM EDT


 

Airport Tracker/Info


-or-


 

Live Flight TrackerFlight Track Log ✈ DAL268 ✈ 29-Aug-2013 ✈ KSFO - KJFK

Flight Track Log - Related Links

Times and Time Zones

All times are in EDT time to prevent confusion due to time zone crossing. See the DAL268 flight status page for this flight to view local times or setup timezone preferences in your user account.

Time Position Orientation Groundspeed Altitude Reporting Facility
EDT Latitude Longitude Course Direction KTS MPH feet Rate Location/Type
02:37PM 37.6497 -122.3411 38° Northeast 187 215 1,800  Level Oakland Center
02:38PM 37.6900 -122.2803 50° Northeast 228 262 3,600 2,280 Climbing Oakland Center
02:39PM 37.6323 -122.4184 119° Southeast  Level FlightAware Approximate
02:39PM 37.7511 -122.2203 38° Northeast 273 314 6,500  Level Oakland Center
02:40PM 37.6835 -122.2999 38° Northeast  Level FlightAware Approximate
02:40PM 37.8161 -122.1586 37° Northeast 291 335 9,100  Level Oakland Center
02:41PM 37.7856 -122.1977 38° Northeast  Level FlightAware Approximate
02:41PM 37.8853 -122.0911 38° Northeast 310 357 11,200  Level Oakland Center
02:42PM 37.8879 -122.0955 38° Northeast  Level FlightAware Approximate
02:42PM 37.9669 -122.0122 37° Northeast 367 422 12,300  Level Oakland Center
02:43PM 38.0764 -121.9083 37° Northeast 410 472 14,700 2,160 Climbing Oakland Center
02:44PM 38.1711 -121.8164 37° Northeast 427 491 16,800 1,800 Climbing Oakland Center
02:45PM 38.2497 -121.6978 50° Northeast 443 510 18,400 1,560 Climbing Oakland Center
02:46PM 38.3308 -121.5739 50° Northeast 456 525 20,100 1,740 Climbing Oakland Center
02:47PM 38.4236 -121.4347 50° Northeast 462 532 22,000 1,500 Climbing Oakland Center
02:48PM 38.4956 -121.3175 52° Northeast 471 542 23,200 1,440 Climbing Oakland Center
02:49PM 38.5953 -121.1536 52° Northeast 484 557 25,000 1,500 Climbing Oakland Center
02:50PM 38.6858 -121.0094 51° Northeast 498 573 26,300 1,200 Climbing Oakland Center
02:51PM 38.7733 -120.8675 52° Northeast 506 582 27,500 1,140 Climbing Oakland Center
02:52PM 38.8625 -120.7217 52° Northeast 516 594 28,700 1,500 Climbing Oakland Center
02:53PM 38.9500 -120.5769 52° Northeast 515 593 30,700 1,560 Climbing Oakland Center
02:54PM 39.0364 -120.4344 52° Northeast 507 583 31,900 1,200 Climbing Oakland Center
02:55PM 39.1231 -120.2925 52° Northeast 505 581 33,200 1,200 Climbing Oakland Center
02:56PM 39.2067 -120.1481 53° Northeast 501 577 34,400 960 Climbing Oakland Center
02:57PM 39.3125 -119.9803 51° Northeast 513 590 35,300 840 Climbing Oakland Center
02:58PM 39.3967 -119.8333 53° Northeast 509 586 36,200 480 Climbing Oakland Center
02:59PM 39.4847 -119.6853 52° Northeast 516 594 36,400 360 Climbing Oakland Center
03:00PM 39.5747 -119.5322 53° Northeast 528 608 37,000 240 Climbing Oakland Center
03:02PM 39.6639 -119.3778 53° Northeast 531 611 37,000  Level Oakland Center
03:03PM 39.7547 -119.2225 53° Northeast 535 616 37,000  Level Oakland Center
03:04PM 39.8469 -119.0642 53° Northeast 540 621 37,000  Level Oakland Center
03:05PM 39.9381 -118.9036 53° Northeast 545 627 37,000  Level Oakland Center
03:06PM 40.0300 -118.7436 53° Northeast 548 631 37,000  Level Oakland Center
03:07PM 40.1336 -118.5453 56° Northeast 546 628 37,000  Level Oakland Center
03:08PM 40.1886 -118.3494 70° East 539 620 37,000  Level Salt Lake Center
03:09PM 40.2361 -118.1728 71° East 539 620 37,000  Level Salt Lake Center
03:10PM 40.2831 -117.9969 71° East 536 617 37,000  Level Oakland Center
03:11PM 40.3303 -117.8214 71° East 533 613 37,000  Level Oakland Center
03:12PM 40.3856 -117.6172 70° East 531 611 37,000  Level Oakland Center
03:13PM 40.4333 -117.4422 70° East 531 611 37,000  Level Oakland Center
03:14PM 40.4872 -117.2392 71° East 525 604 37,000  Level Oakland Center
03:15PM 40.5336 -117.0611 71° East 531 611 37,000  Level Oakland Center
03:16PM 40.5842 -116.8839 69° East 532 612 37,000  Level Oakland Center
03:17PM 40.6614 -116.6883 62° Northeast 531 611 37,000  Level Oakland Center
03:18PM 40.7358 -116.4942 63° Northeast 531 611 37,000  Level Salt Lake Center
03:19PM 40.7997 -116.3286 63° Northeast 528 608 37,000  Level Salt Lake Center
03:20PM 40.8747 -116.1344 63° Northeast 531 611 37,000  Level Salt Lake Center
03:21PM 40.9403 -115.9681 62° Northeast 532 612 37,000  Level Salt Lake Center
03:22PM 41.0133 -115.7725 64° Northeast 531 611 37,000  Level Salt Lake Center
03:23PM 41.0764 -115.6044 63° Northeast 531 611 37,000  Level Salt Lake Center
03:24PM 41.1503 -115.4081 63° Northeast 533 613 37,000  Level Salt Lake Center
03:25PM 41.2136 -115.2403 63° Northeast 532 612 37,000  Level Salt Lake Center
03:26PM 41.2753 -115.0706 64° Northeast 532 612 37,000  Level Salt Lake Center
03:27PM 41.3475 -114.8728 64° Northeast 533 613 37,000  Level Salt Lake Center
03:28PM 41.4097 -114.7019 64° Northeast 530 610 37,000  Level Salt Lake Center
03:29PM 41.4747 -114.5253 64° Northeast 531 611 37,000  Level Salt Lake Center
03:30PM 41.5392 -114.3486 64° Northeast 530 610 37,000  Level Salt Lake Center
03:32PM 41.6142 -114.1358 65° Northeast 529 609 37,000  Level Salt Lake Center
03:33PM 41.6781 -113.9592 64° Northeast 528 608 37,000  Level Salt Lake Center
03:34PM 41.7406 -113.7808 65° Northeast 529 609 37,000  Level Salt Lake Center
03:35PM 41.8033 -113.6036 65° Northeast 528 608 37,000  Level Salt Lake Center
03:36PM 41.8661 -113.4247 65° Northeast 530 610 37,000  Level Salt Lake Center
03:37PM 41.9278 -113.2478 65° Northeast 525 604 37,000  Level Salt Lake Center
03:38PM 42.0017 -113.0322 65° Northeast 528 608 37,000  Level Salt Lake Center
03:39PM 42.0628 -112.8536 65° Northeast 526 605 37,000  Level Salt Lake Center
03:40PM 42.1244 -112.6742 65° Northeast 528 608 37,000  Level Salt Lake Center
03:41PM 42.1839 -112.4950 66° East 523 602 37,000  Level Salt Lake Center
03:42PM 42.2444 -112.3150 66° East 526 605 37,000  Level Salt Lake Center
03:43PM 42.3031 -112.1344 66° East 524 603 37,000  Level Salt Lake Center
03:44PM 42.3608 -111.9539 67° East 525 604 37,000  Level Salt Lake Center
03:45PM 42.4308 -111.7381 66° East 523 602 37,000  Level Salt Lake Center
03:46PM 42.4886 -111.5569 67° East 524 603 37,000  Level Salt Lake Center
03:47PM 42.5461 -111.3767 67° East 522 601 37,000  Level Salt Lake Center
03:48PM 42.6022 -111.1972 67° East 519 597 37,000  Level Salt Lake Center
03:49PM 42.6594 -111.0156 67° East 522 601 37,000  Level Salt Lake Center
03:50PM 42.7269 -110.7997 67° East 525 604 37,000  Level Salt Lake Center
03:51PM 42.7803 -110.6256 67° East 523 602 37,000  Level Salt Lake Center
03:52PM 42.8328 -110.4547 67° East 516 594 37,000  Level Salt Lake Center
03:53PM 42.8950 -110.2514 67° East 521 600 37,000  Level Salt Lake Center
03:54PM 42.9472 -110.0767 68° East 521 600 37,000  Level Salt Lake Center
03:55PM 43.0089 -109.8731 67° East 523 602 37,000  Level Salt Lake Center
03:56PM 43.0636 -109.6881 68° East 520 598 37,000  Level Salt Lake Center
03:57PM 43.1181 -109.5067 68° East 519 597 37,000  Level Salt Lake Center
03:58PM 43.1725 -109.3256 68° East 515 593 37,000  Level Salt Lake Center
03:59PM 43.2244 -109.1411 69° East 518 596 37,000  Level Salt Lake Center
04:00PM 43.2867 -108.9181 69° East 523 602 37,000  Level Salt Lake Center
04:01PM 43.3400 -108.7358 68° East 519 597 37,000  Level Salt Lake Center
04:03PM 43.3925 -108.5547 68° East 513 590 37,000  Level Salt Lake Center
04:04PM 43.4433 -108.3697 69° East 519 597 37,000  Level Salt Lake Center
04:05PM 43.4956 -108.1875 68° East 516 594 37,000  Level Salt Lake Center
04:06PM 43.5506 -108.0056 67° East 518 596 37,000  Level Salt Lake Center
04:07PM 43.6142 -107.7867 68° East 516 594 37,000  Level Salt Lake Center
04:08PM 43.6672 -107.6036 68° East 517 595 37,000  Level Salt Lake Center
04:09PM 43.7206 -107.4219 68° East 515 593 37,000  Level Salt Lake Center
04:10PM 43.7717 -107.2389 69° East 512 589 37,000  Level Salt Lake Center
04:11PM 43.8236 -107.0561 68° East 514 592 37,000  Level Salt Lake Center
04:12PM 43.8792 -106.8600 68° East 516 594 37,000  Level Salt Lake Center
04:13PM 43.9317 -106.6789 68° East 516 594 37,000  Level Denver Center
04:14PM 43.9906 -106.4717 68° East 515 593 37,000  Level Denver Center
04:15PM 44.0406 -106.2772 70° East 517 595 37,000  Level Salt Lake Center
04:16PM 44.0822 -106.1097 71° East 519 597 37,000  Level Denver Center
04:17PM 44.1347 -105.8989 71° East 518 596 37,000  Level Denver Center
04:18PM 44.1800 -105.7181 71° East 516 594 37,000  Level Denver Center
04:19PM 44.2308 -105.5061 71° East 516 594 37,000  Level Denver Center
04:20PM 44.2764 -105.3253 71° East 516 594 37,000  Level Denver Center
04:21PM 44.3269 -105.1108 72° East 518 596 37,000  Level Denver Center
04:22PM 44.3700 -104.9292 72° East 515 593 37,000  Level Denver Center
04:23PM 44.4211 -104.7167 71° East 515 593 37,000  Level Denver Center
04:24PM 44.4814 -104.5431 64° Northeast 516 594 37,000  Level Denver Center
04:25PM 44.5456 -104.3394 66° East 512 589 37,000  Level Denver Center
04:26PM 44.5675 -104.1478 81° East 516 594 37,000  Level Denver Center
04:27PM 44.5911 -103.9231 82° East 520 598 37,000  Level Denver Center
04:28PM 44.6092 -103.7314 82° East 520 598 37,000  Level Denver Center
04:29PM 44.6303 -103.5142 82° East 514 592 37,000  Level Denver Center
04:30PM 44.6483 -103.3147 83° East 514 592 37,000  Level Denver Center
04:31PM 44.6664 -103.1183 83° East 508 585 37,000  Level Denver Center
04:32PM 44.6850 -102.9225 82° East 508 585 37,000  Level Denver Center
04:33PM 44.7014 -102.7258 83° East 507 583 37,000  Level Denver Center
04:34PM 44.7203 -102.5303 82° East 507 583 37,000  Level Denver Center
04:35PM 44.7389 -102.2939 84° East 507 583 37,000  Level Denver Center
04:37PM 44.7553 -102.0967 83° East 508 585 37,000  Level Denver Center
04:38PM 44.7717 -101.9011 83° East 505 581 37,000  Level Denver Center
04:39PM 44.7847 -101.7050 85° East 505 581 37,000  Level Minneapolis Center
04:40PM 44.8000 -101.5097 84° East 505 581 37,000  Level Minneapolis Center
04:41PM 44.8150 -101.3125 84° East 506 582 37,000  Level Minneapolis Center
04:42PM 44.8325 -101.0756 84° East 507 583 37,000  Level Minneapolis Center
04:43PM 44.8469 -100.8789 84° East 507 583 37,000  Level Minneapolis Center
04:44PM 44.8614 -100.6831 84° East 506 582 37,000  Level Minneapolis Center
04:45PM 44.8756 -100.4867 84° East 508 585 37,000  Level Minneapolis Center
04:46PM 44.8889 -100.2853 85° East 512 589 37,000  Level Minneapolis Center
04:47PM 44.9017 -100.0522 85° East 508 585 37,000  Level Minneapolis Center
04:48PM 44.9139 -99.8542 85° East 518 596 37,000  Level Minneapolis Center
04:49PM 44.9300 -99.6583 83° East 516 594 37,000  Level Minneapolis Center
04:50PM 44.9422 -99.4611 85° East 511 588 37,000  Level Minneapolis Center
04:51PM 44.9544 -99.2631 85° East 510 587 37,000  Level Minneapolis Center
04:52PM 44.9681 -99.0242 85° East 511 588 37,000  Level Minneapolis Center
04:53PM 44.9800 -98.8244 85° East 512 589 37,000  Level Minneapolis Center
04:54PM 44.9900 -98.6253 86° East 511 588 37,000  Level Minneapolis Center
04:55PM 45.0014 -98.4261 85° East 510 587 37,000  Level Minneapolis Center
04:56PM 45.0117 -98.2128 86° East 510 587 37,000  Level Minneapolis Center
04:57PM 45.0211 -98.0136 86° East 509 586 37,000  Level Minneapolis Center
04:58PM 45.0306 -97.8131 86° East 512 589 37,000  Level Minneapolis Center
04:59PM 45.0403 -97.6144 86° East 508 585 37,000  Level Minneapolis Center
05:00PM 45.0489 -97.3761 87° East 507 583 37,000  Level Minneapolis Center
05:01PM 45.0569 -97.1761 87° East 508 585 37,000  Level Minneapolis Center
05:02PM 45.0661 -96.9769 86° East 508 585 37,000  Level Minneapolis Center
05:03PM 45.0722 -96.7778 87° East 507 583 37,000  Level Minneapolis Center
05:04PM 45.0794 -96.5786 87° East 507 583 37,000  Level Minneapolis Center
05:05PM 45.0872 -96.3797 87° East 506 582 37,000  Level Minneapolis Center
05:07PM 45.0953 -96.1422 87° East 503 579 37,000  Level Minneapolis Center
05:08PM 45.1006 -95.9442 88° East 504 580 37,000  Level Minneapolis Center
05:09PM 45.1069 -95.7483 87° East 499 574 37,000  Level Minneapolis Center
05:10PM 45.1114 -95.5525 88° East 498 573 37,000  Level Minneapolis Center
05:11PM 45.1164 -95.3550 88° East 501 577 37,000  Level Minneapolis Center
05:12PM 45.1214 -95.1583 88° East 500 575 37,000  Level Minneapolis Center
05:13PM 45.1247 -94.9622 89° East 499 574 37,000  Level Minneapolis Center
05:14PM 45.1308 -94.7267 88° East 500 575 37,000  Level Minneapolis Center
05:15PM 45.1328 -94.5469 89° East 497 572 37,000  Level Minneapolis Center
05:16PM 45.1353 -94.3514 89° East 499 574 37,000  Level Minneapolis Center
05:17PM 45.1386 -94.1578 89° East 494 568 37,000  Level Minneapolis Center
05:18PM 45.1417 -93.9228 89° East 496 571 37,000  Level Minneapolis Center
05:19PM 45.1442 -93.7264 89° East 496 571 37,000  Level Minneapolis Center
05:20PM 45.1464 -93.5306 89° East 496 571 37,000  Level Minneapolis Center
05:21PM 45.1322 -93.3347 96° East 502 578 37,000  Level Minneapolis Center
05:22PM 45.0656 -93.1619 119° Southeast 500 575 37,000  Level Minneapolis Center
05:23PM 44.9878 -92.9936 123° Southeast 504 580 37,000  Level Minneapolis Center
05:24PM 44.9153 -92.8242 121° Southeast 499 574 37,000  Level Minneapolis Center
05:25PM 44.8442 -92.6567 121° Southeast 496 571 37,000  Level Minneapolis Center
05:26PM 44.7597 -92.4544 120° Southeast 496 571 37,000  Level Minneapolis Center
05:27PM 44.6886 -92.2897 121° Southeast 496 571 37,000  Level Minneapolis Center
05:28PM 44.6167 -92.1253 122° Southeast 495 570 37,000 120 Level Minneapolis Center
05:29PM 44.5436 -91.9622 122° Southeast 494 568 37,300 600 Climbing Minneapolis Center
05:30PM 44.4728 -91.7981 121° Southeast 494 568 38,300 780 Climbing Minneapolis Center
05:31PM 44.4025 -91.6364 121° Southeast 489 563 39,000 300 Climbing Minneapolis Center
05:32PM 44.3178 -91.4428 121° Southeast 488 562 39,000  Level Minneapolis Center
05:33PM 44.2494 -91.2894 122° Southeast 486 559 39,000  Level Minneapolis Center
05:34PM 44.1792 -91.1319 122° Southeast 483 556 39,000  Level Minneapolis Center
05:35PM 44.1081 -90.9744 122° Southeast 483 556 39,000  Level Minneapolis Center
05:37PM 44.0378 -90.8192 122° Southeast 480 552 39,000  Level Minneapolis Center
05:38PM 43.9525 -90.6306 122° Southeast 483 556 39,000  Level Minneapolis Center
05:39PM 43.8883 -90.4881 122° Southeast 480 552 39,000  Level Minneapolis Center
05:39PM 43.8397 -90.3844 123° Southeast 475 547 39,000  Level Chicago Center
05:40PM 43.7581 -90.2067 122° Southeast 474 545 39,000  Level Chicago Center
05:41PM 43.6864 -90.0553 123° Southeast 472 543 39,000  Level Chicago Center
05:42PM 43.6139 -89.9022 123° Southeast 478 550 39,000  Level Chicago Center
05:43PM 43.5464 -89.7442 120° Southeast 477 549 39,000  Level Chicago Center
05:44PM 43.5117 -89.5356 103° East 476 548 39,000  Level Chicago Center
05:45PM 43.4811 -89.3592 103° East 475 547 39,000  Level Chicago Center
05:47PM 43.4503 -89.1808 103° East 477 549 39,000  Level Chicago Center
05:48PM 43.4192 -89.0044 104° East 477 549 39,000  Level Chicago Center
05:49PM 43.3872 -88.8292 104° East 475 547 39,000  Level Chicago Center
05:50PM 43.3494 -88.6256 104° East 476 548 39,000  Level Chicago Center
05:51PM 43.3150 -88.4486 105° East 494 568 39,000  Level Chicago Center
05:52PM 43.2872 -88.2744 102° East 477 549 39,000  Level Chicago Center
05:53PM 43.2500 -88.0708 104° East 474 545 39,000  Level Chicago Center
05:54PM 43.2175 -87.8944 104° East 478 550 39,000  Level Chicago Center
05:55PM 43.1844 -87.7197 104° East 476 548 39,000  Level Chicago Center
05:56PM 43.1511 -87.5436 104° East 478 550 39,000  Level Chicago Center
05:57PM 43.1142 -87.3483 104° East 479 551 39,000  Level Chicago Center
05:58PM 43.0808 -87.1711 104° East 481 554 39,000  Level Chicago Center
05:59PM 43.0464 -86.9967 105° East 480 552 39,000  Level Chicago Center
06:00PM 43.0117 -86.8206 105° East 482 555 39,000  Level Chicago Center
06:01PM 42.9767 -86.6461 105° East 479 551 39,000  Level Chicago Center
06:02PM 42.9339 -86.4375 106° East 480 552 39,000  Level Chicago Center
06:03PM 42.8981 -86.2644 106° East 480 552 39,000  Level Chicago Center
06:04PM 42.8619 -86.0911 106° East 484 557 39,000  Level Chicago Center
06:05PM 42.8261 -85.9164 106° East 490 564 39,000  Level Chicago Center
06:06PM 42.7847 -85.7078 105° East 490 564 39,000  Level Chicago Center
06:07PM 42.7486 -85.5331 106° East 486 559 39,000  Level Chicago Center
06:08PM 42.7131 -85.3606 106° East 479 551 39,000  Level Chicago Center
06:09PM 42.6767 -85.1867 106° East 479 551 39,000  Level Chicago Center
06:10PM 42.6536 -85.0100 100° East 477 549 39,000  Level Chicago Center
06:11PM 42.6358 -84.8336 98° East 475 547 39,000  Level Chicago Center
06:12PM 42.6122 -84.6211 99° East 476 548 39,000  Level Chicago Center
06:13PM 42.5919 -84.4444 99° East 477 549 39,000  Level Chicago Center
06:15PM 42.5667 -84.2456 100° East 470 541 39,000  Level Cleveland Center
06:16PM 42.5450 -84.0667 99° East 470 541 39,000  Level Cleveland Center
06:17PM 42.5272 -83.8911 98° East 470 541 39,000  Level Cleveland Center
06:18PM 42.5053 -83.7125 99° East 470 541 39,000  Level Cleveland Center
06:19PM 42.4850 -83.5339 99° East 470 541 39,000  Level Cleveland Center
06:20PM 42.4644 -83.3528 99° East 470 541 39,000  Level Cleveland Center
06:21PM 42.4375 -83.1603 101° East 470 541 39,000  Level Cleveland Center
06:22PM 42.4142 -82.9906 100° East 463 533 39,000  Level Cleveland Center
06:23PM 42.3928 -82.8156 99° East 463 533 39,000  Level Cleveland Center
06:24PM 42.3750 -82.6406 98° East 469 540 39,000  Level Cleveland Center
06:25PM 42.3675 -82.4689 93° East 464 534 39,000  Level Cleveland Center
06:26PM 42.3619 -82.2972 92° East 464 534 39,000  Level Cleveland Center
06:27PM 42.3556 -82.1594 94° East 464 534 39,000  Level Cleveland Center
06:28PM 42.3478 -81.9625 93° East 458 527 39,000  Level Cleveland Center
06:29PM 42.3414 -81.7911 93° East 452 520 39,000  Level Cleveland Center
06:30PM 42.3325 -81.6253 94° East 452 520 39,000  Level Cleveland Center
06:31PM 42.3256 -81.4567 93° East 452 520 39,000  Level Cleveland Center
06:32PM 42.3164 -81.2853 94° East 447 514 39,000  Level Cleveland Center
06:33PM 42.3089 -81.1194 93° East 442 509 39,000  Level Cleveland Center
06:34PM 42.3011 -80.9706 94° East 442 509 39,000  Level Cleveland Center
06:35PM 42.2911 -80.8050 95° East 442 509 39,000  Level Cleveland Center
06:36PM 42.2831 -80.6364 94° East 442 509 39,000  Level Cleveland Center
06:37PM 42.2747 -80.4736 94° East 442 509 39,000  Level Cleveland Center
06:38PM 42.2639 -80.3111 95° East 437 503 39,000  Level Cleveland Center
06:39PM 42.2550 -80.1456 94° East 437 503 39,000  Level Cleveland Center
06:40PM 42.2419 -79.9997 97° East 437 503 39,000  Level Cleveland Center
06:41PM 42.2347 -79.8175 93° East 437 503 39,000  Level Cleveland Center
06:42PM 42.2228 -79.6383 95° East 442 509 39,000  Level Cleveland Center
06:43PM 42.2111 -79.4897 96° East 442 509 39,000  Level Cleveland Center
06:44PM 42.2011 -79.3192 94° East 442 509 39,000  Level Cleveland Center
06:45PM 42.1908 -79.1511 95° East 455 524 39,000  Level Cleveland Center
06:46PM 42.1572 -78.9811 105° East 449 517 39,000  Level Cleveland Center
06:47PM 42.1133 -78.8169 110° East 454 522 39,000  Level Cleveland Center
06:48PM 42.0708 -78.6531 109° East 459 528 39,000  Level Cleveland Center
06:49PM 42.0283 -78.4839 109° East 466 536 39,000  Level Cleveland Center
06:50PM 41.9436 -78.1606 109° East 481 554 39,000  Level New York Center
06:51PM 41.9017 -77.9942 109° East 481 554 39,000  Level New York Center
06:52PM 41.8575 -77.8278 110° East 481 554 39,000  Level New York Center
06:53PM 41.8133 -77.6589 109° East 481 554 39,000  Level New York Center
06:54PM 41.7689 -77.4872 109° East 481 554 39,000  Level New York Center
06:55PM 41.7219 -77.3214 111° Southeast 481 554 39,000  Level New York Center
06:56PM 41.6789 -77.1533 109° East 481 554 39,000  Level New York Center
06:57PM 41.6336 -76.9853 110° East 481 554 39,000  Level New York Center
06:58PM 41.5861 -76.8197 111° Southeast 481 554 39,000  Level New York Center
06:59PM 41.5475 -76.6722 109° East 481 554 39,000  Level New York Center
07:00PM 41.5017 -76.5047 110° East 475 547 39,000 -360 Level New York Center
07:01PM 41.4542 -76.3236 109° East 475 547 38,300 -1,740 Descending New York Center
07:02PM 41.4114 -76.1678 110° East 488 562 35,600 -2,700 Descending New York Center
07:03PM 41.3606 -76.0006 112° Southeast 488 562 32,900 -3,240 Descending New York Center
07:04PM 41.3094 -75.8308 112° Southeast 472 543 29,200 -4,140 Descending New York Center
07:05PM 41.2431 -75.6769 120° Southeast 467 537 24,700 -3,060 Descending New York Center
07:06PM 41.1844 -75.5294 118° Southeast 462 532 23,100 -900 Descending New York Center
07:07PM 41.1172 -75.3842 122° Southeast 457 526 23,000 -60 Descending New York Center
07:08PM 41.0503 -75.2339 121° Southeast 464 534 23,000 -60 Level New York Center
07:09PM 40.9975 -75.0819 115° Southeast 459 528 22,900  Descending New York Center
07:10PM 40.9722 -74.9181 101° East 451 519 23,000  Climbing New York Center
07:11PM 40.9631 -74.7556 94° East 446 513 22,900 -1,020 Descending New York Center
07:12PM 40.9497 -74.5925 96° East 441 507 21,000 -1,800 Descending New York Center
07:13PM 40.9381 -74.4353 96° East 441 507 19,300 -1,020 Descending New York Center
07:14PM 40.9281 -74.2892 95° East 416 479 19,000 -240 Descending New York Center
07:15PM 40.9167 -74.2000 100° East 397 457 19,000 -120 Level New York TRACON
07:16PM 40.8833 -74.0667 108° East 353 406 18,900 -840 Descending New York TRACON
07:17PM 40.8333 -73.9667 123° Southeast 349 402 17,400 -1,500 Descending New York TRACON
07:18PM 40.7833 -73.8500 119° Southeast 337 388 15,900 -1,500 Descending New York TRACON
07:19PM 40.7333 -73.7500 123° Southeast 344 396 14,500 -1,440 Descending New York TRACON
07:20PM 40.7000 -73.6667 118° Southeast 346 398 13,200 -780 Descending New York TRACON
07:21PM 40.6833 -73.5333 99° East 311 358 13,000 -960 Descending New York TRACON
07:22PM 40.6167 -73.4667 143° Southeast 332 382 11,300 -2,160 Descending New York TRACON
07:23PM 40.5333 -73.5167 205° Southwest 317 365 8,700 -2,100 Descending New York TRACON
07:24PM 40.4500 -73.5667 205° Southwest 303 349 7,000 -900 Descending New York TRACON
07:25PM 40.3833 -73.6000 201° Southwest 279 321 7,000 -600 Level New York TRACON
07:26PM 40.3333 -73.6500 217° Southwest 247 284 5,900 -1,140 Descending New York TRACON
07:27PM 40.2833 -73.7167 225° Southwest 240 276 4,700 -1,020 Descending New York TRACON
07:28PM 40.2833 -73.7833 270° West 230 265 3,900 -900 Descending New York TRACON
07:29PM 40.3167 -73.8500 303° West 213 245 3,100 -660 Descending New York TRACON
07:31PM 40.4584 -73.8189 North  Level Estimated
07:31PM 40.4000 -73.9167 North 184 212 2,000  Level New York TRACON
07:32PM 40.4500 -73.9167 360° North 179 206 2,000  Level New York TRACON
07:33PM 40.5000 -73.8667 37° Northeast 176 203 2,000  Level New York TRACON
07:34PM 40.5333 -73.8333 37° Northeast 178 205 2,000 -480 Level New York TRACON
07:35PM 40.5667 -73.8167 21° North 180 207 1,200 -840 Descending New York TRACON
07:36PM 40.6167 -73.7833 27° Northeast 143 165 500 -720 Descending New York TRACON